This is the latest recevied weather packets stored in our database for station/object VE6CWS-7. If no packets are shown the sender has not sent any weather packets the latest 10 day(s).
| Time | Temp. | Humidity | Pressure | Rain* | Wind** | Luminosity | Snow |
|---|---|---|---|---|---|---|---|
| 1777859155 | 15° C | 36% | 1008.2 hPa | 0 mm | - | - | - |
| 1777858250 | 15.56° C | 36% | 1007.8 hPa | 0 mm | - | - | - |
| 1777857343 | 16.11° C | 34% | 1007.5 hPa | 0 mm | - | - | - |
| 1777856499 | 16.67° C | 33% | 1007.3 hPa | 0 mm | - | - | - |
| 1777855551 | 18.33° C | 31% | 1007.1 hPa | 0 mm | - | - | - |
| 1777854638 | 19.44° C | 30% | 1006.7 hPa | 0 mm | - | - | - |
| 1777853751 | 19.44° C | 28% | 1006.5 hPa | 0 mm | - | - | - |
| 1777852896 | 20° C | 29% | 1006.3 hPa | 0 mm | - | - | - |
| 1777851933 | 20° C | 27% | 1006.2 hPa | 0 mm | - | - | - |
| 1777851038 | 20° C | 26% | 1006.5 hPa | 0 mm | - | - | - |
| 1777850133 | 20° C | 26% | 1006.5 hPa | 0 mm | - | - | - |
| 1777849292 | 20.56° C | 25% | 1006.3 hPa | 0 mm | - | - | - |
| 1777848351 | 20.56° C | 26% | 1006.5 hPa | 0 mm | - | - | - |
| 1777847450 | 20.56° C | 26% | 1006.5 hPa | 0 mm | - | - | - |
| 1777846549 | 20.56° C | 26% | 1006.6 hPa | 0 mm | - | - | - |
| 1777845707 | 21.11° C | 26% | 1006.5 hPa | 0 mm | - | - | - |
| 1777844746 | 21.11° C | 26% | 1006.5 hPa | 0 mm | - | - | - |
| 1777843845 | 21.11° C | 27% | 1006.6 hPa | 0 mm | - | - | - |
| 1777842948 | 21.11° C | 25% | 1006.7 hPa | 0 mm | - | - | - |
| 1777842102 | 21.67° C | 25% | 1006.7 hPa | 0 mm | - | - | - |
| 1777841146 | 22.22° C | 25% | 1006.4 hPa | 0 mm | - | - | - |
| 1777840262 | 22.22° C | 26% | 1006.6 hPa | 0 mm | - | - | - |
| 1777839341 | 21.67° C | 24% | 1006.9 hPa | 0 mm | - | - | - |
| 1777838499 | 21.11° C | 26% | 1006.8 hPa | 0 mm | - | - | - |
| 1777837543 | 21.67° C | 25% | 1007 hPa | 0 mm | - | - | - |
* Rain latest hour (hover to see other rain measurements)
** Current wind speed in m/s (hover to see current wind gust speed)